sensor_id;sensor_type;location;lat;lon;timestamp;pressure;altitude;pressure_sealevel;temperature;humidity
56681;BME280;42558;52.388;13.390;2023-07-13T00:02:25;100816.13;;;15.69;83.13
56681;BME280;42558;52.388;13.390;2023-07-13T00:04:56;100817.58;;;15.67;83.20
56681;BME280;42558;52.388;13.390;2023-07-13T00:07:26;100813.69;;;15.64;83.69
56681;BME280;42558;52.388;13.390;2023-07-13T00:09:56;100813.17;;;15.59;84.19
56681;BME280;42558;52.388;13.390;2023-07-13T00:12:33;100810.20;;;15.50;84.58
56681;BME280;42558;52.388;13.390;2023-07-13T00:15:15;100814.14;;;15.45;84.79
56681;BME280;42558;52.388;13.390;2023-07-13T00:17:45;100816.60;;;15.44;85.34
56681;BME280;42558;52.388;13.390;2023-07-13T00:20:17;100820.14;;;15.44;85.27
56681;BME280;42558;52.388;13.390;2023-07-13T00:22:47;100815.71;;;15.43;85.42
56681;BME280;42558;52.388;13.390;2023-07-13T00:25:17;100826.91;;;15.40;85.84
56681;BME280;42558;52.388;13.390;2023-07-13T00:27:48;100830.27;;;15.38;86.66
56681;BME280;42558;52.388;13.390;2023-07-13T00:30:18;100831.86;;;15.40;86.82
56681;BME280;42558;52.388;13.390;2023-07-13T00:32:48;100829.39;;;15.40;86.90
56681;BME280;42558;52.388;13.390;2023-07-13T00:35:30;100824.44;;;15.39;86.75
56681;BME280;42558;52.388;13.390;2023-07-13T00:38:00;100820.36;;;15.38;87.03
56681;BME280;42558;52.388;13.390;2023-07-13T00:40:30;100818.96;;;15.34;87.35
56681;BME280;42558;52.388;13.390;2023-07-13T00:43:01;100818.97;;;15.31;88.09
56681;BME280;42558;52.388;13.390;2023-07-13T00:48:01;100823.94;;;15.29;87.39
56681;BME280;42558;52.388;13.390;2023-07-13T00:50:31;100824.31;;;15.28;87.64
56681;BME280;42558;52.388;13.390;2023-07-13T00:53:01;100824.67;;;15.25;88.28
56681;BME280;42558;52.388;13.390;2023-07-13T00:55:33;100825.41;;;15.20;88.67
56681;BME280;42558;52.388;13.390;2023-07-13T00:58:04;100830.73;;;15.18;88.76
56681;BME280;42558;52.388;13.390;2023-07-13T01:00:37;100834.81;;;15.12;88.96
56681;BME280;42558;52.388;13.390;2023-07-13T01:03:08;100841.23;;;15.06;89.42
56681;BME280;42558;52.388;13.390;2023-07-13T01:05:38;100840.52;;;15.02;90.22
56681;BME280;42558;52.388;13.390;2023-07-13T01:08:07;100843.91;;;14.95;90.31
56681;BME280;42558;52.388;13.390;2023-07-13T01:10:38;100838.62;;;14.91;90.86
56681;BME280;42558;52.388;13.390;2023-07-13T01:13:09;100840.05;;;14.87;91.28
56681;BME280;42558;52.388;13.390;2023-07-13T01:15:45;100838.63;;;14.87;91.64
56681;BME280;42558;52.388;13.390;2023-07-13T01:18:27;100834.55;;;14.87;91.72
56681;BME280;42558;52.388;13.390;2023-07-13T01:20:59;100835.08;;;14.88;91.17
56681;BME280;42558;52.388;13.390;2023-07-13T01:23:31;100837.40;;;14.83;91.28
56681;BME280;42558;52.388;13.390;2023-07-13T01:26:01;100835.46;;;14.78;91.86
56681;BME280;42558;52.388;13.390;2023-07-13T01:28:31;100834.39;;;14.77;91.92
56681;BME280;42558;52.388;13.390;2023-07-13T01:31:07;100833.17;;;14.75;91.52
56681;BME280;42558;52.388;13.390;2023-07-13T01:33:40;100833.89;;;14.72;92.19
56681;BME280;42558;52.388;13.390;2023-07-13T01:36:11;100830.17;;;14.69;92.15
56681;BME280;42558;52.388;13.390;2023-07-13T01:38:42;100831.59;;;14.68;92.15
56681;BME280;42558;52.388;13.390;2023-07-13T01:41:13;100833.37;;;14.65;92.54
56681;BME280;42558;52.388;13.390;2023-07-13T01:43:43;100832.84;;;14.62;93.15
56681;BME280;42558;52.388;13.390;2023-07-13T01:46:13;100833.38;;;14.61;93.01
56681;BME280;42558;52.388;13.390;2023-07-13T01:48:52;100833.04;;;14.58;94.10
56681;BME280;42558;52.388;13.390;2023-07-13T01:51:22;100835.70;;;14.58;94.45
56681;BME280;42558;52.388;13.390;2023-07-13T01:53:52;100836.57;;;14.59;94.97
56681;BME280;42558;52.388;13.390;2023-07-13T01:56:22;100840.64;;;14.59;95.33
56681;BME280;42558;52.388;13.390;2023-07-13T01:58:52;100836.41;;;14.59;95.36
56681;BME280;42558;52.388;13.390;2023-07-13T02:01:22;100831.09;;;14.59;95.16
56681;BME280;42558;52.388;13.390;2023-07-13T02:03:52;100830.02;;;14.59;95.09
56681;BME280;42558;52.388;13.390;2023-07-13T02:06:22;100831.44;;;14.55;95.06
56681;BME280;42558;52.388;13.390;2023-07-13T02:08:53;100831.44;;;14.45;95.53
56681;BME280;42558;52.388;13.390;2023-07-13T02:11:23;100829.48;;;14.39;95.39
56681;BME280;42558;52.388;13.390;2023-07-13T02:13:52;100828.42;;;14.35;95.73
56681;BME280;42558;52.388;13.390;2023-07-13T02:16:22;100824.54;;;14.29;95.68
56681;BME280;42558;52.388;13.390;2023-07-13T02:18:52;100814.11;;;14.24;95.26
56681;BME280;42558;52.388;13.390;2023-07-13T02:21:23;100807.39;;;14.13;95.70
56681;BME280;42558;52.388;13.390;2023-07-13T02:23:53;100806.87;;;14.06;96.71
56681;BME280;42558;52.388;13.390;2023-07-13T02:26:21;100810.75;;;14.05;96.54
56681;BME280;42558;52.388;13.390;2023-07-13T02:28:50;100810.94;;;14.06;97.24
56681;BME280;42558;52.388;13.390;2023-07-13T02:31:19;100810.41;;;14.06;98.02
56681;BME280;42558;52.388;13.390;2023-07-13T02:33:47;100817.11;;;14.05;98.00
56681;BME280;42558;52.388;13.390;2023-07-13T02:36:17;100820.46;;;14.02;97.82
56681;BME280;42558;52.388;13.390;2023-07-13T02:38:50;100819.60;;;14.00;98.37
56681;BME280;42558;52.388;13.390;2023-07-13T02:41:19;100823.31;;;13.99;98.47
56681;BME280;42558;52.388;13.390;2023-07-13T02:43:48;100821.17;;;13.97;98.50
56681;BME280;42558;52.388;13.390;2023-07-13T02:46:18;100828.41;;;13.96;98.41
56681;BME280;42558;52.388;13.390;2023-07-13T02:48:47;100840.44;;;13.95;98.64
56681;BME280;42558;52.388;13.390;2023-07-13T02:51:17;100843.80;;;13.94;98.95
56681;BME280;42558;52.388;13.390;2023-07-13T02:53:46;100843.61;;;13.89;99.47
56681;BME280;42558;52.388;13.390;2023-07-13T02:56:14;100847.86;;;13.86;99.34
56681;BME280;42558;52.388;13.390;2023-07-13T02:58:46;100855.27;;;13.81;99.33
56681;BME280;42558;52.388;13.390;2023-07-13T03:01:16;100854.90;;;13.78;99.95
56681;BME280;42558;52.388;13.390;2023-07-13T03:03:52;100853.66;;;13.74;100.00
56681;BME280;42558;52.388;13.390;2023-07-13T03:06:22;100853.83;;;13.70;100.00
56681;BME280;42558;52.388;13.390;2023-07-13T03:08:51;100857.71;;;13.70;100.00
56681;BME280;42558;52.388;13.390;2023-07-13T03:11:20;100860.54;;;13.68;99.94
56681;BME280;42558;52.388;13.390;2023-07-13T03:13:48;100857.16;;;13.61;99.99
56681;BME280;42558;52.388;13.390;2023-07-13T03:16:18;100855.03;;;13.56;100.00
56681;BME280;42558;52.388;13.390;2023-07-13T03:18:47;100855.91;;;13.53;100.00
56681;BME280;42558;52.388;13.390;2023-07-13T03:21:16;100858.20;;;13.56;100.00
56681;BME280;42558;52.388;13.390;2023-07-13T03:23:44;100857.69;;;13.58;100.00
56681;BME280;42558;52.388;13.390;2023-07-13T03:26:18;100855.76;;;13.60;100.00
56681;BME280;42558;52.388;13.390;2023-07-13T03:28:49;100855.40;;;13.62;100.00
56681;BME280;42558;52.388;13.390;2023-07-13T03:31:24;100855.94;;;13.68;100.00
56681;BME280;42558;52.388;13.390;2023-07-13T03:33:56;100856.83;;;13.69;100.00
56681;BME280;42558;52.388;13.390;2023-07-13T03:36:29;100859.14;;;13.73;100.00
56681;BME280;42558;52.388;13.390;2023-07-13T03:39:01;100856.13;;;13.75;100.00
56681;BME280;42558;52.388;13.390;2023-07-13T03:41:29;100860.75;;;13.80;100.00
56681;BME280;42558;52.388;13.390;2023-07-13T03:44:00;100864.45;;;13.83;100.00
56681;BME280;42558;52.388;13.390;2023-07-13T03:46:28;100864.12;;;13.86;100.00
56681;BME280;42558;52.388;13.390;2023-07-13T03:49:00;100871.18;;;13.90;100.00
56681;BME280;42558;52.388;13.390;2023-07-13T03:51:28;100875.08;;;13.92;100.00
56681;BME280;42558;52.388;13.390;2023-07-13T03:53:58;100877.05;;;13.98;100.00
56681;BME280;42558;52.388;13.390;2023-07-13T03:56:27;100879.53;;;14.04;100.00
56681;BME280;42558;52.388;13.390;2023-07-13T03:58:57;100876.87;;;14.09;100.00
56681;BME280;42558;52.388;13.390;2023-07-13T04:01:27;100879.52;;;14.16;100.00
56681;BME280;42558;52.388;13.390;2023-07-13T04:03:57;100875.65;;;14.25;100.00
56681;BME280;42558;52.388;13.390;2023-07-13T04:06:32;100879.01;;;14.29;100.00
56681;BME280;42558;52.388;13.390;2023-07-13T04:09:03;100880.61;;;14.32;100.00
56681;BME280;42558;52.388;13.390;2023-07-13T04:11:33;100883.08;;;14.36;100.00
56681;BME280;42558;52.388;13.390;2023-07-13T04:14:02;100884.49;;;14.40;100.00
56681;BME280;42558;52.388;13.390;2023-07-13T04:16:30;100882.02;;;14.45;100.00
56681;BME280;42558;52.388;13.390;2023-07-13T04:19:00;100881.34;;;14.51;99.97
56681;BME280;42558;52.388;13.390;2023-07-13T04:21:31;100886.99;;;14.56;99.95
56681;BME280;42558;52.388;13.390;2023-07-13T04:24:01;100889.64;;;14.64;100.00
56681;BME280;42558;52.388;13.390;2023-07-13T04:26:29;100893.00;;;14.71;99.76
56681;BME280;42558;52.388;13.390;2023-07-13T04:29:00;100888.56;;;14.78;99.38
56681;BME280;42558;52.388;13.390;2023-07-13T04:31:31;100887.48;;;14.86;99.15
56681;BME280;42558;52.388;13.390;2023-07-13T04:34:00;100889.59;;;14.94;98.50
56681;BME280;42558;52.388;13.390;2023-07-13T04:36:30;100897.02;;;15.00;98.24
56681;BME280;42558;52.388;13.390;2023-07-13T04:39:00;100897.53;;;15.06;97.86
56681;BME280;42558;52.388;13.390;2023-07-13T04:41:30;100898.23;;;15.14;97.94
56681;BME280;42558;52.388;13.390;2023-07-13T04:44:00;100903.67;;;15.22;98.18
56681;BME280;42558;52.388;13.390;2023-07-13T04:46:31;100908.27;;;15.29;97.79
56681;BME280;42558;52.388;13.390;2023-07-13T04:49:03;100907.71;;;15.37;97.37
56681;BME280;42558;52.388;13.390;2023-07-13T04:51:33;100911.02;;;15.47;96.98
56681;BME280;42558;52.388;13.390;2023-07-13T04:54:01;100909.41;;;15.57;96.68
56681;BME280;42558;52.388;13.390;2023-07-13T04:56:30;100906.02;;;15.68;95.94
56681;BME280;42558;52.388;13.390;2023-07-13T04:59:00;100908.81;;;15.76;95.69
56681;BME280;42558;52.388;13.390;2023-07-13T05:01:30;100912.27;;;15.90;95.41
56681;BME280;42558;52.388;13.390;2023-07-13T05:04:00;100913.97;;;16.05;94.53
56681;BME280;42558;52.388;13.390;2023-07-13T05:06:30;100918.61;;;16.25;94.23
56681;BME280;42558;52.388;13.390;2023-07-13T05:09:00;100918.85;;;16.41;93.19
56681;BME280;42558;52.388;13.390;2023-07-13T05:11:31;100921.92;;;16.54;92.29
56681;BME280;42558;52.388;13.390;2023-07-13T05:14:00;100915.96;;;16.70;91.81
56681;BME280;42558;52.388;13.390;2023-07-13T05:16:30;100916.30;;;16.73;91.24
56681;BME280;42558;52.388;13.390;2023-07-13T05:19:01;100916.73;;;16.83;92.14
56681;BME280;42558;52.388;13.390;2023-07-13T05:21:31;100917.62;;;17.02;92.18
56681;BME280;42558;52.388;13.390;2023-07-13T05:24:01;100916.58;;;17.15;90.72
56681;BME280;42558;52.388;13.390;2023-07-13T05:26:45;100917.85;;;17.28;89.97
56681;BME280;42558;52.388;13.390;2023-07-13T05:29:15;100919.14;;;17.39;89.36
56681;BME280;42558;52.388;13.390;2023-07-13T05:31:44;100921.62;;;17.55;88.48
56681;BME280;42558;52.388;13.390;2023-07-13T05:34:14;100921.69;;;17.80;87.02
56681;BME280;42558;52.388;13.390;2023-07-13T05:36:44;100923.30;;;18.04;85.57
56681;BME280;42558;52.388;13.390;2023-07-13T05:39:14;100928.18;;;18.23;83.94
56681;BME280;42558;52.388;13.390;2023-07-13T05:41:44;100922.89;;;18.43;83.33
56681;BME280;42558;52.388;13.390;2023-07-13T05:44:14;100927.25;;;18.59;82.00
56681;BME280;42558;52.388;13.390;2023-07-13T05:46:43;100921.77;;;18.68;80.23
56681;BME280;42558;52.388;13.390;2023-07-13T05:49:13;100923.52;;;18.80;78.69
56681;BME280;42558;52.388;13.390;2023-07-13T05:51:43;100920.86;;;19.10;78.11
56681;BME280;42558;52.388;13.390;2023-07-13T05:54:13;100924.66;;;19.34;77.05
56681;BME280;42558;52.388;13.390;2023-07-13T05:56:43;100923.09;;;19.50;76.24
56681;BME280;42558;52.388;13.390;2023-07-13T05:59:13;100916.98;;;19.44;74.49
56681;BME280;42558;52.388;13.390;2023-07-13T06:01:43;100915.89;;;19.37;73.86
56681;BME280;42558;52.388;13.390;2023-07-13T06:04:13;100916.54;;;19.58;72.56
56681;BME280;42558;52.388;13.390;2023-07-13T06:06:42;100915.40;;;19.70;71.18
56681;BME280;42558;52.388;13.390;2023-07-13T06:09:12;100913.39;;;19.80;70.71
56681;BME280;42558;52.388;13.390;2023-07-13T06:11:42;100916.73;;;19.90;70.65
56681;BME280;42558;52.388;13.390;2023-07-13T06:14:12;100914.40;;;20.21;69.81
56681;BME280;42558;52.388;13.390;2023-07-13T06:16:42;100912.98;;;20.59;68.86
56681;BME280;42558;52.388;13.390;2023-07-13T06:19:13;100908.40;;;20.91;67.69
56681;BME280;42558;52.388;13.390;2023-07-13T06:21:43;100906.14;;;20.88;66.59
56681;BME280;42558;52.388;13.390;2023-07-13T06:24:13;100904.85;;;20.96;66.32
56681;BME280;42558;52.388;13.390;2023-07-13T06:26:43;100904.45;;;21.05;64.52
56681;BME280;42558;52.388;13.390;2023-07-13T06:29:13;100903.15;;;21.06;63.44
56681;BME280;42558;52.388;13.390;2023-07-13T06:31:43;100899.04;;;21.20;63.67
56681;BME280;42558;52.388;13.390;2023-07-13T06:34:13;100895.81;;;21.33;63.04
56681;BME280;42558;52.388;13.390;2023-07-13T06:36:40;100896.41;;;21.31;62.52
56681;BME280;42558;52.388;13.390;2023-07-13T06:39:10;100903.77;;;21.49;61.90
56681;BME280;42558;52.388;13.390;2023-07-13T06:41:37;100906.04;;;21.57;62.33
56681;BME280;42558;52.388;13.390;2023-07-13T06:44:07;100905.33;;;21.63;61.83
56681;BME280;42558;52.388;13.390;2023-07-13T06:46:37;100909.95;;;21.70;61.66
56681;BME280;42558;52.388;13.390;2023-07-13T06:49:09;100910.21;;;22.02;59.67
56681;BME280;42558;52.388;13.390;2023-07-13T06:51:38;100912.61;;;22.00;59.65
56681;BME280;42558;52.388;13.390;2023-07-13T06:54:07;100911.09;;;22.15;59.72
56681;BME280;42558;52.388;13.390;2023-07-13T06:56:35;100911.55;;;22.28;59.63
56681;BME280;42558;52.388;13.390;2023-07-13T06:59:03;100908.06;;;22.47;58.28
56681;BME280;42558;52.388;13.390;2023-07-13T07:01:32;100906.40;;;22.86;56.65
56681;BME280;42558;52.388;13.390;2023-07-13T07:04:00;100905.34;;;22.91;56.19
56681;BME280;42558;52.388;13.390;2023-07-13T07:06:29;100902.15;;;22.80;54.93
56681;BME280;42558;52.388;13.390;2023-07-13T07:08:57;100902.90;;;22.62;55.92
56681;BME280;42558;52.388;13.390;2023-07-13T07:11:26;100904.04;;;22.87;55.35
56681;BME280;42558;52.388;13.390;2023-07-13T07:13:54;100905.88;;;23.11;54.80
56681;BME280;42558;52.388;13.390;2023-07-13T07:16:25;100905.96;;;22.99;54.44
56681;BME280;42558;52.388;13.390;2023-07-13T07:18:54;100911.36;;;22.82;56.14
56681;BME280;42558;52.388;13.390;2023-07-13T07:21:22;100907.80;;;23.23;55.59
56681;BME280;42558;52.388;13.390;2023-07-13T07:23:52;100909.16;;;23.39;53.98
56681;BME280;42558;52.388;13.390;2023-07-13T07:26:22;100907.33;;;23.59;54.41
56681;BME280;42558;52.388;13.390;2023-07-13T07:28:55;100902.39;;;23.72;53.16
56681;BME280;42558;52.388;13.390;2023-07-13T07:31:25;100906.26;;;24.01;53.79
56681;BME280;42558;52.388;13.390;2023-07-13T07:33:55;100905.78;;;24.23;51.95
56681;BME280;42558;52.388;13.390;2023-07-13T07:36:25;100902.98;;;24.68;50.11
56681;BME280;42558;52.388;13.390;2023-07-13T07:38:55;100902.84;;;24.20;50.20
56681;BME280;42558;52.388;13.390;2023-07-13T07:41:22;100905.11;;;23.85;51.28
56681;BME280;42558;52.388;13.390;2023-07-13T07:43:55;100903.89;;;24.42;50.62
56681;BME280;42558;52.388;13.390;2023-07-13T07:46:22;100905.83;;;24.78;50.21
56681;BME280;42558;52.388;13.390;2023-07-13T07:48:52;100909.20;;;24.71;50.53
56681;BME280;42558;52.388;13.390;2023-07-13T07:51:22;100912.45;;;24.62;50.70
56681;BME280;42558;52.388;13.390;2023-07-13T07:53:52;100910.40;;;24.19;51.39
56681;BME280;42558;52.388;13.390;2023-07-13T07:56:22;100909.17;;;24.75;51.37
56681;BME280;42558;52.388;13.390;2023-07-13T07:58:52;100908.08;;;25.76;49.93
56681;BME280;42558;52.388;13.390;2023-07-13T08:01:22;100911.09;;;25.34;47.68
56681;BME280;42558;52.388;13.390;2023-07-13T08:03:53;100908.27;;;25.13;49.71
56681;BME280;42558;52.388;13.390;2023-07-13T08:06:23;100906.12;;;24.87;48.76
56681;BME280;42558;52.388;13.390;2023-07-13T08:08:56;100911.45;;;24.19;50.68
56681;BME280;42558;52.388;13.390;2023-07-13T08:11:23;100917.33;;;24.08;51.42
56681;BME280;42558;52.388;13.390;2023-07-13T08:13:54;100919.90;;;23.50;52.12
56681;BME280;42558;52.388;13.390;2023-07-13T08:16:26;100923.94;;;23.13;52.93
56681;BME280;42558;52.388;13.390;2023-07-13T08:18:55;100919.16;;;22.90;53.77
56681;BME280;42558;52.388;13.390;2023-07-13T08:21:25;100924.34;;;22.96;54.81
56681;BME280;42558;52.388;13.390;2023-07-13T08:23:55;100922.11;;;23.14;54.14
56681;BME280;42558;52.388;13.390;2023-07-13T08:26:25;100921.73;;;23.09;53.93
56681;BME280;42558;52.388;13.390;2023-07-13T08:28:55;100926.48;;;23.07;54.11
56681;BME280;42558;52.388;13.390;2023-07-13T08:31:25;100924.77;;;23.24;53.12
56681;BME280;42558;52.388;13.390;2023-07-13T08:33:55;100928.63;;;23.22;53.06
56681;BME280;42558;52.388;13.390;2023-07-13T08:36:26;100931.56;;;23.15;53.39
56681;BME280;42558;52.388;13.390;2023-07-13T08:38:56;100933.16;;;23.10;53.35
56681;BME280;42558;52.388;13.390;2023-07-13T08:41:26;100935.05;;;23.28;52.58
56681;BME280;42558;52.388;13.390;2023-07-13T08:43:59;100932.59;;;23.46;51.88
56681;BME280;42558;52.388;13.390;2023-07-13T08:46:38;100928.77;;;23.76;51.48
56681;BME280;42558;52.388;13.390;2023-07-13T08:49:21;100932.98;;;24.16;51.17
56681;BME280;42558;52.388;13.390;2023-07-13T08:52:02;100929.06;;;24.29;50.36
56681;BME280;42558;52.388;13.390;2023-07-13T08:54:49;100922.09;;;24.88;49.50
56681;BME280;42558;52.388;13.390;2023-07-13T08:57:33;100926.68;;;24.87;49.00
56681;BME280;42558;52.388;13.390;2023-07-13T09:00:01;100934.30;;;24.63;48.46
56681;BME280;42558;52.388;13.390;2023-07-13T09:02:54;100934.18;;;24.40;49.50
56681;BME280;42558;52.388;13.390;2023-07-13T09:05:33;100926.38;;;24.93;48.47
56681;BME280;42558;52.388;13.390;2023-07-13T09:11:50;100929.43;;;25.19;46.55
56681;BME280;42558;52.388;13.390;2023-07-13T09:17:19;100926.28;;;24.79;46.11
56681;BME280;42558;52.388;13.390;2023-07-13T09:19:58;100916.05;;;25.16;44.45
56681;BME280;42558;52.388;13.390;2023-07-13T09:22:36;100918.75;;;25.12;42.89
56681;BME280;42558;52.388;13.390;2023-07-13T09:25:34;100917.23;;;24.97;42.53
56681;BME280;42558;52.388;13.390;2023-07-13T09:28:21;100927.14;;;24.32;44.69
56681;BME280;42558;52.388;13.390;2023-07-13T09:31:26;100918.40;;;23.94;46.13
56681;BME280;42558;52.388;13.390;2023-07-13T09:33:58;100922.73;;;23.46;47.00
56681;BME280;42558;52.388;13.390;2023-07-13T09:36:33;100925.42;;;23.31;47.32
56681;BME280;42558;52.388;13.390;2023-07-13T09:41:51;100928.18;;;23.04;47.37
56681;BME280;42558;52.388;13.390;2023-07-13T09:44:35;100935.09;;;23.02;47.77
56681;BME280;42558;52.388;13.390;2023-07-13T09:47:29;100932.65;;;23.00;47.65
56681;BME280;42558;52.388;13.390;2023-07-13T09:50:05;100937.77;;;22.96;48.33
56681;BME280;42558;52.388;13.390;2023-07-13T09:52:49;100939.98;;;22.68;49.02
56681;BME280;42558;52.388;13.390;2023-07-13T09:55:27;100941.69;;;22.54;50.09
56681;BME280;42558;52.388;13.390;2023-07-13T09:58:15;100938.41;;;22.83;50.19
56681;BME280;42558;52.388;13.390;2023-07-13T10:00:59;100939.14;;;23.39;50.40
56681;BME280;42558;52.388;13.390;2023-07-13T10:03:35;100933.94;;;23.73;48.27
56681;BME280;42558;52.388;13.390;2023-07-13T10:06:19;100936.05;;;24.33;47.82
56681;BME280;42558;52.388;13.390;2023-07-13T10:08:50;100932.08;;;24.52;46.42
56681;BME280;42558;52.388;13.390;2023-07-13T10:11:26;100938.11;;;23.81;46.56
56681;BME280;42558;52.388;13.390;2023-07-13T10:16:46;100947.56;;;22.83;50.19
56681;BME280;42558;52.388;13.390;2023-07-13T10:19:26;100953.82;;;22.56;50.65
56681;BME280;42558;52.388;13.390;2023-07-13T10:22:12;100955.40;;;22.73;50.11
56681;BME280;42558;52.388;13.390;2023-07-13T10:24:44;100951.89;;;22.77;49.34
56681;BME280;42558;52.388;13.390;2023-07-13T10:27:24;100949.16;;;22.62;48.81
56681;BME280;42558;52.388;13.390;2023-07-13T10:30:35;100948.70;;;23.02;48.39
56681;BME280;42558;52.388;13.390;2023-07-13T10:33:12;100940.70;;;23.93;46.83
56681;BME280;42558;52.388;13.390;2023-07-13T10:35:44;100935.17;;;24.56;45.91
56681;BME280;42558;52.388;13.390;2023-07-13T10:38:22;100937.88;;;24.55;45.60
56681;BME280;42558;52.388;13.390;2023-07-13T10:41:01;100942.64;;;24.26;45.33
56681;BME280;42558;52.388;13.390;2023-07-13T10:43:39;100946.19;;;23.72;45.66
56681;BME280;42558;52.388;13.390;2023-07-13T10:46:15;100949.89;;;23.64;46.69
56681;BME280;42558;52.388;13.390;2023-07-13T10:48:52;100952.29;;;23.57;47.68
56681;BME280;42558;52.388;13.390;2023-07-13T10:51:24;100951.81;;;23.94;47.57
56681;BME280;42558;52.388;13.390;2023-07-13T10:56:46;100943.30;;;23.63;46.47
56681;BME280;42558;52.388;13.390;2023-07-13T10:59:25;100937.19;;;23.34;46.91
56681;BME280;42558;52.388;13.390;2023-07-13T11:02:35;100941.68;;;23.67;46.52
56681;BME280;42558;52.388;13.390;2023-07-13T11:05:31;100940.64;;;24.36;44.13
56681;BME280;42558;52.388;13.390;2023-07-13T11:08:38;100934.66;;;24.51;43.59
56681;BME280;42558;52.388;13.390;2023-07-13T11:22:02;100930.71;;;24.37;42.96
56681;BME280;42558;52.388;13.390;2023-07-13T11:25:06;100925.59;;;24.52;42.89
56681;BME280;42558;52.388;13.390;2023-07-13T11:28:04;100913.59;;;24.94;40.49
56681;BME280;42558;52.388;13.390;2023-07-13T11:35:59;100915.66;;;24.49;40.18
56681;BME280;42558;52.388;13.390;2023-07-13T11:38:40;100913.92;;;24.44;40.63
56681;BME280;42558;52.388;13.390;2023-07-13T11:41:22;100900.95;;;25.11;39.92
56681;BME280;42558;52.388;13.390;2023-07-13T11:44:11;100911.27;;;25.42;38.84
56681;BME280;42558;52.388;13.390;2023-07-13T11:46:54;100910.20;;;24.89;38.99
56681;BME280;42558;52.388;13.390;2023-07-13T11:49:29;100905.58;;;24.96;38.90
56681;BME280;42558;52.388;13.390;2023-07-13T11:52:02;100907.30;;;25.06;39.38
56681;BME280;42558;52.388;13.390;2023-07-13T11:54:41;100907.15;;;25.06;39.36
56681;BME280;42558;52.388;13.390;2023-07-13T11:57:32;100906.39;;;24.94;40.12
56681;BME280;42558;52.388;13.390;2023-07-13T12:00:15;100907.28;;;25.31;40.78
56681;BME280;42558;52.388;13.390;2023-07-13T12:02:55;100903.86;;;25.39;40.44
56681;BME280;42558;52.388;13.390;2023-07-13T12:05:25;100899.80;;;25.45;40.18
56681;BME280;42558;52.388;13.390;2023-07-13T12:07:55;100894.77;;;25.21;39.03
56681;BME280;42558;52.388;13.390;2023-07-13T12:10:29;100889.55;;;25.25;39.99
56681;BME280;42558;52.388;13.390;2023-07-13T12:13:05;100893.04;;;25.66;38.94
56681;BME280;42558;52.388;13.390;2023-07-13T12:15:40;100887.78;;;25.36;38.02
56681;BME280;42558;52.388;13.390;2023-07-13T12:18:19;100892.89;;;25.39;39.22
56681;BME280;42558;52.388;13.390;2023-07-13T12:20:51;100889.16;;;25.45;37.10
56681;BME280;42558;52.388;13.390;2023-07-13T12:23:34;100890.52;;;24.94;37.14
56681;BME280;42558;52.388;13.390;2023-07-13T12:26:06;100891.40;;;24.66;38.83
56681;BME280;42558;52.388;13.390;2023-07-13T12:28:49;100894.61;;;24.96;37.80
56681;BME280;42558;52.388;13.390;2023-07-13T12:31:33;100893.67;;;25.21;37.88
56681;BME280;42558;52.388;13.390;2023-07-13T12:34:11;100894.44;;;25.28;38.19
56681;BME280;42558;52.388;13.390;2023-07-13T12:36:50;100895.05;;;25.19;38.53
56681;BME280;42558;52.388;13.390;2023-07-13T12:39:34;100898.77;;;25.32;39.73
56681;BME280;42558;52.388;13.390;2023-07-13T12:47:48;100896.92;;;25.41;39.51
56681;BME280;42558;52.388;13.390;2023-07-13T12:50:30;100892.91;;;25.46;38.52
56681;BME280;42558;52.388;13.390;2023-07-13T12:53:04;100888.03;;;25.26;39.31
56681;BME280;42558;52.388;13.390;2023-07-13T12:55:50;100890.59;;;25.30;39.33
56681;BME280;42558;52.388;13.390;2023-07-13T12:58:41;100897.08;;;24.64;39.16
56681;BME280;42558;52.388;13.390;2023-07-13T13:01:14;100898.15;;;24.51;39.87
56681;BME280;42558;52.388;13.390;2023-07-13T13:03:51;100900.61;;;24.65;38.59
56681;BME280;42558;52.388;13.390;2023-07-13T13:06:27;100902.24;;;24.90;38.79
56681;BME280;42558;52.388;13.390;2023-07-13T13:08:59;100897.49;;;25.24;38.94
56681;BME280;42558;52.388;13.390;2023-07-13T13:11:31;100900.34;;;25.37;38.64
56681;BME280;42558;52.388;13.390;2023-07-13T13:14:01;100894.38;;;25.33;38.69
56681;BME280;42558;52.388;13.390;2023-07-13T13:16:43;100895.09;;;25.14;38.83
56681;BME280;42558;52.388;13.390;2023-07-13T13:19:28;100897.63;;;24.55;39.10
56681;BME280;42558;52.388;13.390;2023-07-13T13:21:56;100895.77;;;24.60;39.75
56681;BME280;42558;52.388;13.390;2023-07-13T13:24:27;100895.37;;;24.75;39.50
56681;BME280;42558;52.388;13.390;2023-07-13T13:26:56;100892.58;;;24.81;40.19
56681;BME280;42558;52.388;13.390;2023-07-13T13:29:25;100892.46;;;24.95;39.47
56681;BME280;42558;52.388;13.390;2023-07-13T13:31:54;100895.33;;;25.00;39.95
56681;BME280;42558;52.388;13.390;2023-07-13T13:34:25;100891.56;;;25.20;39.45
56681;BME280;42558;52.388;13.390;2023-07-13T13:36:54;100900.63;;;25.31;38.60
56681;BME280;42558;52.388;13.390;2023-07-13T13:39:36;100895.29;;;25.05;38.58
56681;BME280;42558;52.388;13.390;2023-07-13T13:42:09;100895.73;;;25.55;39.41
56681;BME280;42558;52.388;13.390;2023-07-13T13:44:38;100894.66;;;25.59;38.40
56681;BME280;42558;52.388;13.390;2023-07-13T13:47:31;100894.78;;;25.60;38.43
56681;BME280;42558;52.388;13.390;2023-07-13T13:50:16;100898.16;;;25.45;38.54